sensor_id;sensor_type;location;lat;lon;timestamp;pressure;altitude;pressure_sealevel;temperature;humidity
34103;BME280;20381;54.498;18.206;2022-12-18T00:00:55;100974.62;;;-4.67;71.04
34103;BME280;20381;54.498;18.206;2022-12-18T00:03:23;100974.83;;;-4.61;70.93
34103;BME280;20381;54.498;18.206;2022-12-18T00:05:50;100975.85;;;-4.56;71.05
34103;BME280;20381;54.498;18.206;2022-12-18T00:08:18;100977.88;;;-4.46;71.17
34103;BME280;20381;54.498;18.206;2022-12-18T00:10:46;100982.18;;;-4.45;71.06
34103;BME280;20381;54.498;18.206;2022-12-18T00:13:12;100992.23;;;-4.37;71.25
34103;BME280;20381;54.498;18.206;2022-12-18T00:15:39;100985.95;;;-4.34;71.19
34103;BME280;20381;54.498;18.206;2022-12-18T00:18:06;100977.58;;;-4.30;71.16
34103;BME280;20381;54.498;18.206;2022-12-18T00:20:36;100985.23;;;-4.30;69.65
34103;BME280;20381;54.498;18.206;2022-12-18T00:23:06;100982.64;;;-4.31;69.52
34103;BME280;20381;54.498;18.206;2022-12-18T00:25:46;100983.02;;;-4.32;69.41
34103;BME280;20381;54.498;18.206;2022-12-18T00:28:12;100986.75;;;-4.35;69.40
34103;BME280;20381;54.498;18.206;2022-12-18T00:30:40;100984.16;;;-4.36;69.29
34103;BME280;20381;54.498;18.206;2022-12-18T00:33:07;100985.72;;;-4.40;69.11
34103;BME280;20381;54.498;18.206;2022-12-18T00:35:36;100986.95;;;-4.54;68.90
34103;BME280;20381;54.498;18.206;2022-12-18T00:38:02;100991.63;;;-4.66;68.61
34103;BME280;20381;54.498;18.206;2022-12-18T00:40:55;100989.02;;;-4.81;68.97
34103;BME280;20381;54.498;18.206;2022-12-18T00:43:16;100993.52;;;-4.85;69.05
34103;BME280;20381;54.498;18.206;2022-12-18T00:45:45;100995.52;;;-4.89;69.09
34103;BME280;20381;54.498;18.206;2022-12-18T00:48:13;100990.66;;;-4.94;69.09
34103;BME280;20381;54.498;18.206;2022-12-18T00:51:00;100993.13;;;-5.08;68.74
34103;BME280;20381;54.498;18.206;2022-12-18T00:53:29;100991.75;;;-5.23;68.72
34103;BME280;20381;54.498;18.206;2022-12-18T00:56:00;100993.48;;;-5.33;68.77
34103;BME280;20381;54.498;18.206;2022-12-18T00:58:27;101004.53;;;-5.55;68.60
34103;BME280;20381;54.498;18.206;2022-12-18T01:01:01;100995.58;;;-5.68;68.69
34103;BME280;20381;54.498;18.206;2022-12-18T01:03:29;100999.37;;;-5.79;68.80
34103;BME280;20381;54.498;18.206;2022-12-18T01:06:04;101002.36;;;-5.89;69.02
34103;BME280;20381;54.498;18.206;2022-12-18T01:08:34;101006.29;;;-5.86;69.26
34103;BME280;20381;54.498;18.206;2022-12-18T01:11:06;101006.72;;;-5.75;69.55
34103;BME280;20381;54.498;18.206;2022-12-18T01:13:35;101020.20;;;-5.67;69.45
34103;BME280;20381;54.498;18.206;2022-12-18T01:16:04;101024.31;;;-5.70;69.42
34103;BME280;20381;54.498;18.206;2022-12-18T01:18:41;101019.52;;;-5.74;69.44
34103;BME280;20381;54.498;18.206;2022-12-18T01:21:12;101014.44;;;-5.63;69.69
34103;BME280;20381;54.498;18.206;2022-12-18T01:23:38;101031.62;;;-5.57;69.54
34103;BME280;20381;54.498;18.206;2022-12-18T01:26:09;101022.42;;;-5.53;69.59
34103;BME280;20381;54.498;18.206;2022-12-18T01:31:28;101031.44;;;-5.50;69.52
34103;BME280;20381;54.498;18.206;2022-12-18T01:34:00;101028.33;;;-5.54;69.65
34103;BME280;20381;54.498;18.206;2022-12-18T01:36:32;101032.25;;;-5.63;69.48
34103;BME280;20381;54.498;18.206;2022-12-18T01:39:06;101036.50;;;-5.73;69.44
34103;BME280;20381;54.498;18.206;2022-12-18T01:41:34;101034.88;;;-5.82;69.47
34103;BME280;20381;54.498;18.206;2022-12-18T01:50:11;101039.98;;;-6.03;69.87
34103;BME280;20381;54.498;18.206;2022-12-18T01:52:47;101040.47;;;-6.12;69.74
34103;BME280;20381;54.498;18.206;2022-12-18T01:55:23;101041.05;;;-6.19;69.88
34103;BME280;20381;54.498;18.206;2022-12-18T01:57:54;101035.96;;;-6.19;69.67
34103;BME280;20381;54.498;18.206;2022-12-18T02:00:24;101042.27;;;-6.30;69.81
34103;BME280;20381;54.498;18.206;2022-12-18T02:02:52;101046.95;;;-6.39;69.77
34103;BME280;20381;54.498;18.206;2022-12-18T02:20:16;101056.59;;;-6.61;70.13
34103;BME280;20381;54.498;18.206;2022-12-18T02:22:49;101061.81;;;-6.68;69.91
34103;BME280;20381;54.498;18.206;2022-12-18T02:28:13;101060.16;;;-6.77;70.16
34103;BME280;20381;54.498;18.206;2022-12-18T02:30:44;101071.45;;;-6.80;70.28
34103;BME280;20381;54.498;18.206;2022-12-18T02:33:13;101061.94;;;-6.84;70.17
34103;BME280;20381;54.498;18.206;2022-12-18T02:35:42;101071.61;;;-6.95;69.83
34103;BME280;20381;54.498;18.206;2022-12-18T02:38:12;101070.94;;;-7.01;70.09
34103;BME280;20381;54.498;18.206;2022-12-18T02:40:39;101074.75;;;-7.01;70.22
34103;BME280;20381;54.498;18.206;2022-12-18T02:43:09;101079.83;;;-7.01;70.31
34103;BME280;20381;54.498;18.206;2022-12-18T02:45:52;101082.31;;;-7.02;70.12
34103;BME280;20381;54.498;18.206;2022-12-18T02:48:27;101072.75;;;-7.08;70.16
34103;BME280;20381;54.498;18.206;2022-12-18T02:53:51;101085.44;;;-7.08;70.45
34103;BME280;20381;54.498;18.206;2022-12-18T02:59:02;101093.42;;;-7.18;70.29
34103;BME280;20381;54.498;18.206;2022-12-18T03:05:10;101086.17;;;-7.28;70.47
34103;BME280;20381;54.498;18.206;2022-12-18T03:07:33;101092.38;;;-7.31;70.49
34103;BME280;20381;54.498;18.206;2022-12-18T03:09:59;101089.38;;;-7.32;70.65
34103;BME280;20381;54.498;18.206;2022-12-18T03:12:37;101085.61;;;-7.40;70.62
34103;BME280;20381;54.498;18.206;2022-12-18T03:18:01;101103.07;;;-7.29;70.84
34103;BME280;20381;54.498;18.206;2022-12-18T03:20:34;101098.08;;;-7.27;70.61
34103;BME280;20381;54.498;18.206;2022-12-18T03:23:09;101101.40;;;-7.28;70.55
34103;BME280;20381;54.498;18.206;2022-12-18T03:25:42;101107.81;;;-7.36;70.51
34103;BME280;20381;54.498;18.206;2022-12-18T03:28:15;101112.08;;;-7.35;70.73
34103;BME280;20381;54.498;18.206;2022-12-18T03:30:47;101120.01;;;-7.37;70.79
34103;BME280;20381;54.498;18.206;2022-12-18T03:33:27;101125.26;;;-7.43;70.51
34103;BME280;20381;54.498;18.206;2022-12-18T03:35:56;101121.98;;;-7.50;70.69
34103;BME280;20381;54.498;18.206;2022-12-18T03:38:23;101130.85;;;-7.50;70.88
34103;BME280;20381;54.498;18.206;2022-12-18T03:43:51;101132.27;;;-7.47;71.03
34103;BME280;20381;54.498;18.206;2022-12-18T03:46:54;101128.60;;;-7.44;71.11
34103;BME280;20381;54.498;18.206;2022-12-18T03:52:04;101133.82;;;-7.40;71.21
34103;BME280;20381;54.498;18.206;2022-12-18T03:54:34;101128.75;;;-7.40;71.20
34103;BME280;20381;54.498;18.206;2022-12-18T03:57:07;101138.09;;;-7.39;71.25
34103;BME280;20381;54.498;18.206;2022-12-18T03:59:40;101139.19;;;-7.34;71.40
34103;BME280;20381;54.498;18.206;2022-12-18T04:02:08;101136.78;;;-7.31;71.30
34103;BME280;20381;54.498;18.206;2022-12-18T04:04:39;101141.86;;;-7.31;71.27
34103;BME280;20381;54.498;18.206;2022-12-18T04:07:07;101148.87;;;-7.35;71.24
34103;BME280;20381;54.498;18.206;2022-12-18T04:09:36;101144.43;;;-7.39;71.38
34103;BME280;20381;54.498;18.206;2022-12-18T04:12:04;101148.23;;;-7.39;71.27
34103;BME280;20381;54.498;18.206;2022-12-18T04:14:31;101145.41;;;-7.46;71.32
34103;BME280;20381;54.498;18.206;2022-12-18T04:17:00;101147.95;;;-7.46;71.36
34103;BME280;20381;54.498;18.206;2022-12-18T04:19:26;101151.00;;;-7.53;71.20
34103;BME280;20381;54.498;18.206;2022-12-18T04:21:53;101160.80;;;-7.51;71.49
34103;BME280;20381;54.498;18.206;2022-12-18T04:24:20;101163.84;;;-7.50;71.59
34103;BME280;20381;54.498;18.206;2022-12-18T04:26:48;101165.87;;;-7.51;71.52
34103;BME280;20381;54.498;18.206;2022-12-18T04:29:16;101166.86;;;-7.57;71.41
34103;BME280;20381;54.498;18.206;2022-12-18T04:31:47;101165.13;;;-7.58;71.49
34103;BME280;20381;54.498;18.206;2022-12-18T04:34:14;101159.24;;;-7.57;71.59
34103;BME280;20381;54.498;18.206;2022-12-18T04:36:41;101169.25;;;-7.60;71.50
34103;BME280;20381;54.498;18.206;2022-12-18T04:39:09;101167.37;;;-7.64;71.63
34103;BME280;20381;54.498;18.206;2022-12-18T04:41:36;101174.02;;;-7.66;71.57
34103;BME280;20381;54.498;18.206;2022-12-18T04:44:03;101172.92;;;-7.71;71.48
34103;BME280;20381;54.498;18.206;2022-12-18T04:46:29;101171.04;;;-7.75;71.59
34103;BME280;20381;54.498;18.206;2022-12-18T04:48:58;101169.28;;;-7.76;71.61
34103;BME280;20381;54.498;18.206;2022-12-18T04:51:25;101181.90;;;-7.78;71.75
34103;BME280;20381;54.498;18.206;2022-12-18T04:53:51;101180.85;;;-7.81;71.63
34103;BME280;20381;54.498;18.206;2022-12-18T04:56:18;101179.93;;;-7.83;71.48
34103;BME280;20381;54.498;18.206;2022-12-18T04:58:46;101177.24;;;-7.86;71.73
34103;BME280;20381;54.498;18.206;2022-12-18T05:01:18;101175.97;;;-7.86;71.92
34103;BME280;20381;54.498;18.206;2022-12-18T05:03:45;101181.97;;;-7.84;71.98
34103;BME280;20381;54.498;18.206;2022-12-18T05:06:12;101191.00;;;-7.81;72.03
34103;BME280;20381;54.498;18.206;2022-12-18T05:08:38;101191.19;;;-7.86;71.86
34103;BME280;20381;54.498;18.206;2022-12-18T05:11:12;101190.54;;;-7.91;71.82
34103;BME280;20381;54.498;18.206;2022-12-18T05:13:42;101200.06;;;-7.95;71.71
34103;BME280;20381;54.498;18.206;2022-12-18T05:16:16;101196.52;;;-8.06;71.62
34103;BME280;20381;54.498;18.206;2022-12-18T05:18:48;101203.88;;;-8.03;71.85
34103;BME280;20381;54.498;18.206;2022-12-18T05:21:15;101205.14;;;-8.03;71.84
34103;BME280;20381;54.498;18.206;2022-12-18T05:23:42;101206.87;;;-8.02;71.90
34103;BME280;20381;54.498;18.206;2022-12-18T05:26:08;101213.70;;;-8.01;71.90
34103;BME280;20381;54.498;18.206;2022-12-18T05:28:39;101219.55;;;-8.02;71.81
34103;BME280;20381;54.498;18.206;2022-12-18T05:31:05;101214.01;;;-8.11;71.60
34103;BME280;20381;54.498;18.206;2022-12-18T05:33:34;101217.16;;;-8.15;71.65
34103;BME280;20381;54.498;18.206;2022-12-18T05:36:02;101225.10;;;-8.17;71.74
34103;BME280;20381;54.498;18.206;2022-12-18T05:38:32;101222.88;;;-8.19;71.74
34103;BME280;20381;54.498;18.206;2022-12-18T05:41:00;101223.98;;;-8.22;71.67
34103;BME280;20381;54.498;18.206;2022-12-18T05:43:28;101224.13;;;-8.27;71.49
34103;BME280;20381;54.498;18.206;2022-12-18T05:45:56;101232.19;;;-8.35;71.39
34103;BME280;20381;54.498;18.206;2022-12-18T05:48:23;101237.30;;;-8.43;71.29
34103;BME280;20381;54.498;18.206;2022-12-18T05:50:50;101237.59;;;-8.53;71.27
34103;BME280;20381;54.498;18.206;2022-12-18T05:53:19;101241.83;;;-8.60;71.24
34103;BME280;20381;54.498;18.206;2022-12-18T05:55:47;101238.97;;;-8.66;71.26
34103;BME280;20381;54.498;18.206;2022-12-18T05:58:16;101240.31;;;-8.73;71.25
34103;BME280;20381;54.498;18.206;2022-12-18T06:00:45;101234.19;;;-8.76;71.47
34103;BME280;20381;54.498;18.206;2022-12-18T06:03:13;101242.88;;;-8.80;71.50
34103;BME280;20381;54.498;18.206;2022-12-18T06:05:43;101235.29;;;-8.80;71.45
34103;BME280;20381;54.498;18.206;2022-12-18T06:08:20;101238.36;;;-8.85;71.38
34103;BME280;20381;54.498;18.206;2022-12-18T06:10:52;101235.03;;;-8.92;71.37
34103;BME280;20381;54.498;18.206;2022-12-18T06:13:19;101236.16;;;-9.02;71.17
34103;BME280;20381;54.498;18.206;2022-12-18T06:15:50;101249.17;;;-9.11;71.19
34103;BME280;20381;54.498;18.206;2022-12-18T06:18:18;101247.80;;;-9.20;71.25
34103;BME280;20381;54.498;18.206;2022-12-18T06:20:56;101253.45;;;-9.25;71.21
34103;BME280;20381;54.498;18.206;2022-12-18T06:23:28;101261.49;;;-9.32;71.12
34103;BME280;20381;54.498;18.206;2022-12-18T06:25:56;101263.68;;;-9.38;71.12
34103;BME280;20381;54.498;18.206;2022-12-18T06:28:26;101268.86;;;-9.43;71.02
34103;BME280;20381;54.498;18.206;2022-12-18T06:30:52;101265.19;;;-9.48;71.13
34103;BME280;20381;54.498;18.206;2022-12-18T06:33:26;101271.34;;;-9.51;71.27
34103;BME280;20381;54.498;18.206;2022-12-18T06:35:50;101271.16;;;-9.54;71.34
34103;BME280;20381;54.498;18.206;2022-12-18T06:38:33;101274.45;;;-9.55;71.36
34103;BME280;20381;54.498;18.206;2022-12-18T06:40:58;101280.77;;;-9.55;71.45
34103;BME280;20381;54.498;18.206;2022-12-18T06:43:28;101280.59;;;-9.58;71.39
34103;BME280;20381;54.498;18.206;2022-12-18T06:46:01;101280.99;;;-9.59;71.37
34103;BME280;20381;54.498;18.206;2022-12-18T06:48:30;101285.19;;;-9.59;71.40
34103;BME280;20381;54.498;18.206;2022-12-18T06:51:00;101288.50;;;-9.60;71.35
34103;BME280;20381;54.498;18.206;2022-12-18T06:53:32;101290.36;;;-9.64;71.29
34103;BME280;20381;54.498;18.206;2022-12-18T06:56:01;101297.11;;;-9.72;71.08
34103;BME280;20381;54.498;18.206;2022-12-18T06:58:29;101302.57;;;-9.79;71.04
34103;BME280;20381;54.498;18.206;2022-12-18T07:01:02;101313.69;;;-9.90;70.98
34103;BME280;20381;54.498;18.206;2022-12-18T07:03:32;101317.77;;;-9.92;71.15
34103;BME280;20381;54.498;18.206;2022-12-18T07:05:59;101312.06;;;-9.96;71.42
34103;BME280;20381;54.498;18.206;2022-12-18T07:08:26;101309.03;;;-9.97;71.45
34103;BME280;20381;54.498;18.206;2022-12-18T07:10:52;101319.14;;;-9.97;71.50
34103;BME280;20381;54.498;18.206;2022-12-18T07:13:20;101315.67;;;-9.99;71.38
34103;BME280;20381;54.498;18.206;2022-12-18T07:15:46;101322.85;;;-10.05;71.33
34103;BME280;20381;54.498;18.206;2022-12-18T07:18:15;101327.33;;;-10.01;71.58
34103;BME280;20381;54.498;18.206;2022-12-18T07:20:52;101325.45;;;-9.97;71.61
34103;BME280;20381;54.498;18.206;2022-12-18T07:23:20;101329.83;;;-9.88;71.78
34103;BME280;20381;54.498;18.206;2022-12-18T07:26:08;101330.98;;;-9.83;71.84
34103;BME280;20381;54.498;18.206;2022-12-18T07:28:28;101336.01;;;-9.76;72.02
34103;BME280;20381;54.498;18.206;2022-12-18T07:30:54;101343.55;;;-9.70;71.96
34103;BME280;20381;54.498;18.206;2022-12-18T07:33:21;101346.59;;;-9.69;71.98
34103;BME280;20381;54.498;18.206;2022-12-18T07:35:52;101353.92;;;-9.58;72.27
34103;BME280;20381;54.498;18.206;2022-12-18T07:38:19;101341.34;;;-9.43;72.38
34103;BME280;20381;54.498;18.206;2022-12-18T07:40:45;101344.87;;;-9.33;72.10
34103;BME280;20381;54.498;18.206;2022-12-18T07:43:12;101348.77;;;-9.32;72.07
34103;BME280;20381;54.498;18.206;2022-12-18T07:45:42;101348.47;;;-9.30;72.00
34103;BME280;20381;54.498;18.206;2022-12-18T07:48:09;101343.88;;;-9.29;71.85
34103;BME280;20381;54.498;18.206;2022-12-18T07:50:36;101340.50;;;-9.36;71.52
34103;BME280;20381;54.498;18.206;2022-12-18T07:53:03;101339.17;;;-9.44;71.70
34103;BME280;20381;54.498;18.206;2022-12-18T07:55:32;101346.64;;;-9.39;72.04
34103;BME280;20381;54.498;18.206;2022-12-18T07:58:07;101352.81;;;-9.27;72.43
34103;BME280;20381;54.498;18.206;2022-12-18T08:00:31;101344.64;;;-9.08;72.64
34103;BME280;20381;54.498;18.206;2022-12-18T08:03:00;101346.82;;;-8.99;72.44
34103;BME280;20381;54.498;18.206;2022-12-18T08:05:37;101342.83;;;-8.96;72.30
34103;BME280;20381;54.498;18.206;2022-12-18T08:08:03;101344.52;;;-9.03;71.80
34103;BME280;20381;54.498;18.206;2022-12-18T08:10:29;101349.41;;;-9.06;72.02
34103;BME280;20381;54.498;18.206;2022-12-18T08:12:56;101350.79;;;-8.96;72.42
34103;BME280;20381;54.498;18.206;2022-12-18T08:15:23;101357.61;;;-8.81;72.51
34103;BME280;20381;54.498;18.206;2022-12-18T08:17:49;101353.81;;;-8.81;72.32
34103;BME280;20381;54.498;18.206;2022-12-18T08:20:18;101348.63;;;-8.75;72.49
34103;BME280;20381;54.498;18.206;2022-12-18T08:22:53;101350.23;;;-8.69;72.55
34103;BME280;20381;54.498;18.206;2022-12-18T08:25:23;101351.83;;;-8.63;72.67
34103;BME280;20381;54.498;18.206;2022-12-18T08:27:52;101352.20;;;-8.49;73.13
34103;BME280;20381;54.498;18.206;2022-12-18T08:30:18;101359.13;;;-8.30;73.35
34103;BME280;20381;54.498;18.206;2022-12-18T08:32:46;101364.34;;;-8.12;73.52
34103;BME280;20381;54.498;18.206;2022-12-18T08:35:15;101363.19;;;-7.94;73.67
34103;BME280;20381;54.498;18.206;2022-12-18T08:37:43;101368.34;;;-7.76;73.88
34103;BME280;20381;54.498;18.206;2022-12-18T08:40:10;101363.95;;;-7.56;74.05
34103;BME280;20381;54.498;18.206;2022-12-18T08:42:38;101365.03;;;-7.34;74.22
34103;BME280;20381;54.498;18.206;2022-12-18T08:45:08;101360.59;;;-7.14;74.35
34103;BME280;20381;54.498;18.206;2022-12-18T08:47:41;101369.42;;;-6.98;74.30
34103;BME280;20381;54.498;18.206;2022-12-18T08:50:09;101365.93;;;-6.83;74.29
34103;BME280;20381;54.498;18.206;2022-12-18T08:52:37;101367.00;;;-6.78;73.96
34103;BME280;20381;54.498;18.206;2022-12-18T08:55:08;101363.41;;;-6.65;74.30
34103;BME280;20381;54.498;18.206;2022-12-18T08:57:35;101363.41;;;-6.47;74.46
34103;BME280;20381;54.498;18.206;2022-12-18T09:00:03;101353.99;;;-6.22;74.18
34103;BME280;20381;54.498;18.206;2022-12-18T09:02:31;101353.99;;;-6.22;74.18
34103;BME280;20381;54.498;18.206;2022-12-18T09:04:59;101356.44;;;-6.16;74.22
34103;BME280;20381;54.498;18.206;2022-12-18T09:07:26;101351.31;;;-6.07;74.24
34103;BME280;20381;54.498;18.206;2022-12-18T09:09:53;101359.03;;;-5.96;74.43
34103;BME280;20381;54.498;18.206;2022-12-18T09:12:19;101362.73;;;-5.88;74.26
34103;BME280;20381;54.498;18.206;2022-12-18T09:14:49;101374.30;;;-5.77;74.58
34103;BME280;20381;54.498;18.206;2022-12-18T09:17:18;101362.03;;;-5.66;74.61
34103;BME280;20381;54.498;18.206;2022-12-18T09:19:45;101361.79;;;-5.63;74.24
34103;BME280;20381;54.498;18.206;2022-12-18T09:22:12;101360.97;;;-5.62;74.16
34103;BME280;20381;54.498;18.206;2022-12-18T09:27:12;101371.44;;;-5.46;74.40
34103;BME280;20381;54.498;18.206;2022-12-18T09:29:40;101372.05;;;-5.32;74.60
34103;BME280;20381;54.498;18.206;2022-12-18T09:32:06;101374.03;;;-5.25;74.44
34103;BME280;20381;54.498;18.206;2022-12-18T09:34:33;101373.50;;;-5.18;74.56
34103;BME280;20381;54.498;18.206;2022-12-18T09:37:02;101368.80;;;-5.08;74.63
34103;BME280;20381;54.498;18.206;2022-12-18T09:39:42;101363.63;;;-5.00;74.60
34103;BME280;20381;54.498;18.206;2022-12-18T09:41:57;101362.34;;;-5.00;74.46
34103;BME280;20381;54.498;18.206;2022-12-18T09:44:28;101379.56;;;-4.95;74.61
34103;BME280;20381;54.498;18.206;2022-12-18T09:47:34;101368.06;;;-4.85;74.66
34103;BME280;20381;54.498;18.206;2022-12-18T09:50:04;101370.12;;;-4.76;74.68
34103;BME280;20381;54.498;18.206;2022-12-18T09:52:43;101365.22;;;-4.72;74.49
34103;BME280;20381;54.498;18.206;2022-12-18T09:55:28;101362.55;;;-4.75;74.44
34103;BME280;20381;54.498;18.206;2022-12-18T09:58:13;101356.52;;;-4.77;74.46
34103;BME280;20381;54.498;18.206;2022-12-18T10:00:52;101368.10;;;-4.74;74.53
34103;BME280;20381;54.498;18.206;2022-12-18T10:03:26;101356.09;;;-4.66;74.69
34103;BME280;20381;54.498;18.206;2022-12-18T10:06:05;101366.77;;;-4.54;74.71
34103;BME280;20381;54.498;18.206;2022-12-18T10:08:46;101369.01;;;-4.41;74.92
34103;BME280;20381;54.498;18.206;2022-12-18T10:30:13;101378.84;;;-4.07;74.95
34103;BME280;20381;54.498;18.206;2022-12-18T10:32:45;101376.70;;;-3.96;74.89
34103;BME280;20381;54.498;18.206;2022-12-18T10:44:28;101384.95;;;-3.80;74.91
34103;BME280;20381;54.498;18.206;2022-12-18T10:47:09;101381.36;;;-3.86;74.81
34103;BME280;20381;54.498;18.206;2022-12-18T10:49:52;101379.22;;;-3.75;75.29
34103;BME280;20381;54.498;18.206;2022-12-18T10:52:25;101376.92;;;-3.67;75.02
34103;BME280;20381;54.498;18.206;2022-12-18T10:55:13;101376.23;;;-3.63;75.00
34103;BME280;20381;54.498;18.206;2022-12-18T10:57:33;101389.22;;;-3.57;75.07
34103;BME280;20381;54.498;18.206;2022-12-18T11:02:59;101378.44;;;-3.50;75.07
34103;BME280;20381;54.498;18.206;2022-12-18T11:05:41;101381.67;;;-3.54;74.85
34103;BME280;20381;54.498;18.206;2022-12-18T11:08:20;101379.12;;;-3.54;74.94
34103;BME280;20381;54.498;18.206;2022-12-18T11:14:04;101376.13;;;-3.42;75.06
34103;BME280;20381;54.498;18.206;2022-12-18T11:20:56;101376.63;;;-3.28;75.26
34103;BME280;20381;54.498;18.206;2022-12-18T11:23:34;101371.34;;;-3.22;75.11
34103;BME280;20381;54.498;18.206;2022-12-18T11:26:05;101375.90;;;-3.13;75.18
34103;BME280;20381;54.498;18.206;2022-12-18T11:35:03;101390.02;;;-2.99;74.99
34103;BME280;20381;54.498;18.206;2022-12-18T11:37:41;101399.48;;;-2.96;75.08
34103;BME280;20381;54.498;18.206;2022-12-18T11:40:18;101402.08;;;-2.95;75.14
34103;BME280;20381;54.498;18.206;2022-12-18T11:42:58;101392.44;;;-2.90;75.19
34103;BME280;20381;54.498;18.206;2022-12-18T11:45:30;101380.78;;;-2.82;75.31
34103;BME280;20381;54.498;18.206;2022-12-18T11:48:47;101378.33;;;-2.79;75.26
34103;BME280;20381;54.498;18.206;2022-12-18T11:51:14;101380.53;;;-2.77;75.09
34103;BME280;20381;54.498;18.206;2022-12-18T11:56:55;101380.16;;;-2.75;75.14
34103;BME280;20381;54.498;18.206;2022-12-18T11:59:50;101399.18;;;-2.67;75.10
34103;BME280;20381;54.498;18.206;2022-12-18T12:12:07;101397.16;;;-2.77;75.03
34103;BME280;20381;54.498;18.206;2022-12-18T12:21:13;101400.50;;;-2.78;74.85
34103;BME280;20381;54.498;18.206;2022-12-18T12:24:09;101388.66;;;-2.76;74.95
34103;BME280;20381;54.498;18.206;2022-12-18T12:27:03;101397.95;;;-2.78;74.80
34103;BME280;20381;54.498;18.206;2022-12-18T12:29:50;101398.30;;;-2.80;74.75
34103;BME280;20381;54.498;18.206;2022-12-18T12:32:51;101412.36;;;-2.80;74.73
34103;BME280;20381;54.498;18.206;2022-12-18T12:39:03;101404.82;;;-2.77;74.68
34103;BME280;20381;54.498;18.206;2022-12-18T12:41:23;101392.64;;;-2.84;74.49
34103;BME280;20381;54.498;18.206;2022-12-18T12:44:24;101389.05;;;-2.89;74.46
34103;BME280;20381;54.498;18.206;2022-12-18T12:46:52;101387.42;;;-2.87;74.60
34103;BME280;20381;54.498;18.206;2022-12-18T12:49:29;101390.08;;;-2.84;74.69
34103;BME280;20381;54.498;18.206;2022-12-18T12:52:28;101384.11;;;-2.85;74.55
34103;BME280;20381;54.498;18.206;2022-12-18T12:54:55;101389.15;;;-2.86;74.47
34103;BME280;20381;54.498;18.206;2022-12-18T12:57:34;101390.81;;;-2.88;74.43
34103;BME280;20381;54.498;18.206;2022-12-18T13:00:14;101399.17;;;-2.93;74.34
34103;BME280;20381;54.498;18.206;2022-12-18T13:03:03;101398.23;;;-2.95;74.47
34103;BME280;20381;54.498;18.206;2022-12-18T13:05:58;101398.03;;;-3.01;74.33
34103;BME280;20381;54.498;18.206;2022-12-18T13:08:34;101402.01;;;-3.09;74.25
34103;BME280;20381;54.498;18.206;2022-12-18T13:11:12;101407.22;;;-3.06;74.51
34103;BME280;20381;54.498;18.206;2022-12-18T13:13:58;101403.49;;;-3.03;74.44
34103;BME280;20381;54.498;18.206;2022-12-18T13:16:28;101410.61;;;-3.07;74.28
34103;BME280;20381;54.498;18.206;2022-12-18T13:21:34;101397.62;;;-3.13;74.17
34103;BME280;20381;54.498;18.206;2022-12-18T13:24:25;101401.45;;;-3.13;74.31
34103;BME280;20381;54.498;18.206;2022-12-18T13:26:54;101394.23;;;-3.12;74.30
34103;BME280;20381;54.498;18.206;2022-12-18T13:32:37;101403.48;;;-3.16;74.28
34103;BME280;20381;54.498;18.206;2022-12-18T13:38:20;101378.94;;;-3.36;74.05
34103;BME280;20381;54.498;18.206;2022-12-18T13:40:54;101378.94;;;-3.36;74.05
34103;BME280;20381;54.498;18.206;2022-12-18T13:43:31;101394.88;;;-3.30;74.24
34103;BME280;20381;54.498;18.206;2022-12-18T13:46:29;101394.41;;;-3.31;74.17
34103;BME280;20381;54.498;18.206;2022-12-18T13:49:18;101398.77;;;-3.40;74.04
34103;BME280;20381;54.498;18.206;2022-12-18T13:51:47;101386.09;;;-3.50;73.97
34103;BME280;20381;54.498;18.206;2022-12-18T13:57:25;101406.91;;;-3.62;73.99
34103;BME280;20381;54.498;18.206;2022-12-18T13:59:58;101406.99;;;-3.71;73.88
34103;BME280;20381;54.498;18.206;2022-12-18T14:02:27;101407.52;;;-3.80;73.86
34103;BME280;20381;54.498;18.206;2022-12-18T14:04:55;101398.63;;;-3.90;73.81
34103;BME280;20381;54.498;18.206;2022-12-18T14:07:26;101390.17;;;-4.00;73.73
34103;BME280;20381;54.498;18.206;2022-12-18T14:10:01;101387.25;;;-4.09;73.71
34103;BME280;20381;54.498;18.206;2022-12-18T14:12:30;101391.06;;;-4.20;73.61
34103;BME280;20381;54.498;18.206;2022-12-18T14:24:31;101383.17;;;-4.59;73.60
34103;BME280;20381;54.498;18.206;2022-12-18T14:29:56;101392.27;;;-4.75;73.57
34103;BME280;20381;54.498;18.206;2022-12-18T14:32:32;101386.59;;;-4.89;73.48
34103;BME280;20381;54.498;18.206;2022-12-18T14:58:32;101425.83;;;-5.81;73.35
34103;BME280;20381;54.498;18.206;2022-12-18T15:01:09;101414.42;;;-5.89;73.36
34103;BME280;20381;54.498;18.206;2022-12-18T15:03:43;101410.36;;;-5.95;73.33
34103;BME280;20381;54.498;18.206;2022-12-18T15:08:58;101415.67;;;-6.09;73.18
34103;BME280;20381;54.498;18.206;2022-12-18T15:12:00;101416.97;;;-6.17;73.20
34103;BME280;20381;54.498;18.206;2022-12-18T15:14:32;101419.55;;;-6.25;73.16
34103;BME280;20381;54.498;18.206;2022-12-18T15:17:05;101423.56;;;-6.30;73.24
34103;BME280;20381;54.498;18.206;2022-12-18T15:19:46;101427.55;;;-6.35;73.13
34103;BME280;20381;54.498;18.206;2022-12-18T15:22:30;101423.91;;;-6.40;73.13
34103;BME280;20381;54.498;18.206;2022-12-18T15:28:24;101430.14;;;-6.51;73.16
34103;BME280;20381;54.498;18.206;2022-12-18T15:36:24;101451.77;;;-6.68;73.22
34103;BME280;20381;54.498;18.206;2022-12-18T15:38:57;101453.35;;;-6.70;73.27
34103;BME280;20381;54.498;18.206;2022-12-18T15:41:32;101449.24;;;-6.76;73.28
34103;BME280;20381;54.498;18.206;2022-12-18T15:47:41;101432.28;;;-6.85;73.20
34103;BME280;20381;54.498;18.206;2022-12-18T15:50:17;101423.14;;;-6.90;73.29
34103;BME280;20381;54.498;18.206;2022-12-18T15:52:53;101432.28;;;-6.93;73.28
34103;BME280;20381;54.498;18.206;2022-12-18T15:58:21;101444.67;;;-7.00;73.28
34103;BME280;20381;54.498;18.206;2022-12-18T16:00:56;101434.27;;;-7.04;73.29
34103;BME280;20381;54.498;18.206;2022-12-18T16:03:50;101430.56;;;-7.11;73.25
34103;BME280;20381;54.498;18.206;2022-12-18T16:06:21;101430.41;;;-7.14;73.34